Terminal Aerodrome Forecast
Issued by NWS Bismarck, ND

Home | Current Version | Previous Version | Text Only | Print | Product List | Glossary On
Versions: 1 2 3 4 5 6 7 8 9 10 11 12 13 14 15 16 17 18 19 20 21
000
FTUS43 KBIS 192300
TAFISN
TAF
KISN 192339Z 2000/2024 VRB03KT 1/4SM FZFG OVC001
      TEMPO 2000/2004 3SM BR OVC002
     FM200400 VRB03KT 1/2SM FZFG OVC002
     FM201800 24008KT P6SM SCT005 BKN100=

USA.gov is the U.S. government's official web portal to all federal, state and local government web resources and services.